Phaethon — SVAM2 — position and weather

sailwx.info

Track history (hours):
 
Tides and Currents Weather Stations Pressure Air Temp Water Temp Dewpoint Dewpoint Depression Visibility Wind Speed Wind Dir Waves Ship Positions

Phaethon

Last reported at 2015-Jul-05 10:33 UTC. Time now 2015-Jul-06 22:08 UTC.
Position S 32°19' E 033°33'.

Length 274 m; draft 15.9 m.

Type: Tanker. MMSI: 240836000.

Date/timePositionNaut miles runAvg speedWind from/ knotsBaromVisibWave heightAir tempDewpointWater temp
2015-Jul-05 10:33S 32°19' E 033°33'1413.8
2015-Jul-05 09:33S 32°24' E 033°18'1513.5
2015-Jul-05 08:28S 32°30' E 033°02'1212.9
2015-Jul-05 07:32S 32°35' E 032°49'1212.0
2015-Jul-05 06:33S 32°39' E 032°36'1211.6
2015-Jul-05 05:33S 32°44' E 032°24'1211.7
2015-Jul-05 04:33S 32°49' E 032°11'1212.1
2015-Jul-05 03:33S 32°53' E 031°58'3912.7
2015-Jul-05 00:28S 33°09' E 031°15'58312.6
2015-Jul-03 02:12S 35°13' E 019°46'1013.1
2015-Jul-03 01:28S 35°11' E 019°34'2812.8
2015-Jul-02 23:15S 35°04' E 019°01'  
Track history (hours):
 
Tides and Currents Weather Stations Pressure Air Temp Water Temp Dewpoint Dewpoint Depression Visibility Wind Speed Wind Dir Waves Ship Positions

Phaethon

Last reported at 2015-Jul-05 10:33 UTC. Time now 2015-Jul-06 22:08 UTC.
Position S 32°19' E 033°33'.

Length 274 m; draft 15.9 m.

Type: Tanker. MMSI: 240836000.

Date/timePositionNaut miles runAvg speedWind from/ knotsBaromVisibWave heightAir tempDewpointWater temp
2015-Jul-05 10:33S 32°19' E 033°33'1413.8
2015-Jul-05 09:33S 32°24' E 033°18'1513.5
2015-Jul-05 08:28S 32°30' E 033°02'1212.9
2015-Jul-05 07:32S 32°35' E 032°49'1212.0
2015-Jul-05 06:33S 32°39' E 032°36'1211.6
2015-Jul-05 05:33S 32°44' E 032°24'1211.7
2015-Jul-05 04:33S 32°49' E 032°11'1212.1
2015-Jul-05 03:33S 32°53' E 031°58'3912.7
2015-Jul-05 00:28S 33°09' E 031°15'58312.6
2015-Jul-03 02:12S 35°13' E 019°46'1013.1
2015-Jul-03 01:28S 35°11' E 019°34'2812.8
2015-Jul-02 23:15S 35°04' E 019°01'  

Dump ship's entire track history